Domov               UVHVVR             MKGP            O straneh              
ZDRAVSTVENO VARSTVO RASTLIN
  MREŽA AGROMET. POSTAJ
 ► PROGNOSTIČNA OBVESTILA
AGROMETEOROLOŠKI PODATKI -
ARSO
OBVLADOVANJE TVEGANJ ZARADI
NEUGODNIH VREMENSKIH RAZMER
  ► NARAVNE NESREČE
  ► SUŠA/MOČA
  ► NAMAKANJE
  ► ŽLED (gozdarstvo)
KARTOGRAFSKI PRIKAZI
SPLETNE POVEZAVE
PROJEKTI IN PUBLIKACIJE

AGROMETEOROLOŠKA MREŽA: VREMENSKE POSTAJE IN FENOLOŠKA OPAZOVANJA

Pregled podatkov za lokacijo Zimica, meteorološka postaja 27472

Pregled senzorjev na lokaciji

ID Ime Zadnja
vrednost
Datum
zadnje
spremembe
Tip
senzorja
1712 Omočenost lista (U) 0 U 28.6.2017 17:30 A730WET
1713 Temperatura 2 m ( °C) 23,15 °C 28.6.2017 17:30 Generic -40 - +60 °C
1714 Relativna vlaga 2 m (% RH) 76 % RH 28.6.2017 17:30 Generic 0 - 100 %
1715 Padavine 0.2 mm (mm) 0 mm 28.6.2017 17:30 Generic 0.2 mm

Pregled podatkov zadnjih 24 ur

Zap.
št.
Datum in čas Zimica
Omočenost
lista
Padavine
0.2
mm
Relativna
vlaga
2
m
Temperatura
2
m
0 28.6.2017 16:30 0 0 76 23,15
1 28.6.2017 16:00 0 0 87,5 22,32
2 28.6.2017 15:30 0 0 83,54 23,15
3 28.6.2017 15:00 0 0 78,24 24,2
4 28.6.2017 14:30 0 0 77,17 23,27
5 28.6.2017 14:00 0 13 91,58 20,54
6 28.6.2017 13:30 0 0 62,1 26,13
7 28.6.2017 13:00 0 0 54,04 27,25
8 28.6.2017 12:30 0 0 51,01 28,38
9 28.6.2017 12:00 0 0 45,69 29,3
10 28.6.2017 11:30 0 0 46,59 29,28
11 28.6.2017 11:00 0 0 46,76 28,82
12 28.6.2017 10:30 0 0 48,52 27,91
13 28.6.2017 10:00 0 0 48,67 27,94
14 28.6.2017 09:30 0 0 48,18 27,57
15 28.6.2017 09:00 0 0 48,5 27,25
16 28.6.2017 08:30 0 0 48,72 26,98
17 28.6.2017 08:00 0 0 48,91 26,54
18 28.6.2017 07:30 0 0 55,92 25,57
19 28.6.2017 07:00 0 0 59,78 23,47
20 28.6.2017 06:30 0 0 70,16 20,73
21 28.6.2017 06:00 0 0 77,07 19,07
22 28.6.2017 05:30 0 0 84,66 17,68
23 28.6.2017 05:00 0 0 85,76 17,34
24 28.6.2017 04:30 0 0 92,87 16,21
25 28.6.2017 04:00 0 0 89,57 16,63
26 28.6.2017 03:30 0 0 84,74 17,29
27 28.6.2017 03:00 0 0 85,42 17,09
28 28.6.2017 02:30 0 0 83,83 16,78
29 28.6.2017 02:00 0 0 84,71 16,9
30 28.6.2017 01:30 0 0 84,62 17,24
31 28.6.2017 01:00 0 0 80,95 18,17
32 28.6.2017 00:30 0 0 73,04 19,63
33 28.6.2017 00:00 0 0 71,28 19,71
34 27.6.2017 23:30 0 0 70,6 19,56
35 27.6.2017 23:00 0 0 71,36 19,8
36 27.6.2017 22:30 0 0 70,77 20,32
37 27.6.2017 22:00 0 0 65,79 20,78
38 27.6.2017 21:30 0 0 64,05 21,56
39 27.6.2017 21:00 0 0 63,76 21,34
40 27.6.2017 20:30 0 0 65,18 21,76
41 27.6.2017 20:00 0 0 58,51 22,69
42 27.6.2017 19:30 0 0 56,07 23,35
43 27.6.2017 19:00 0 0 56,43 23,44
44 27.6.2017 18:30 0 0 58 23,54
45 27.6.2017 18:00 0 0 59,51 23,91
© 2011 Ministrstvo za kmetijstvo, gozdarstvo in prehrano. Vse pravice pridržane.